Wetterdaten Neuhaus/Waldnaab

^

Wetter Neuhaus/WN - aktuelle & historische Daten
 
tägl. Zusammenfassung für den 24. August 2019
« minus 1 Tag
plus 1 Tag »
tägl. wöchentl. monatl. jährl.
  Aktuell: Höchstwert: Tiefstwert: Durchschnitt:
Temperatur: 24.9 °C 27.9 °C 11.9 °C 19.5 °C
Taupunkt: 21.6 °C 22.6 °C 11.8 °C 17.3 °C
Luftfeuchte: 82% 99% 68% 88%
Windgeschwindigkeit: 0.0km/h 15.4km/h 0.0km/h 0.2km/h
Windböe: 0.0km/h 19.8km/h - -
Windruhig - - ONO
Druck: 1021.9 hPa 1025.3 hPa 1021.6 hPa -
Niederschlag: 0.0 mm      
Historical Graphs
 
 














tabellarische Daten für den 24. August 2019
Zeit Temperatur Taupunkt Luftdruck Wind Windgeschwindigkeit Windböe Luftfeuchte Regen (pro h) Solar Bedingungen
00:00 14.5 °C 14.4 °C 1025.3 hPa ruhig     99% 0.0 mm 0.00 W/m2
00:05 14.4 °C 14.3 °C 1025.3 hPa ruhig     99% 0.0 mm 0.00 W/m2
00:10 14.3 °C 14.2 °C 1025.3 hPa ruhig     99% 0.0 mm 0.00 W/m2
00:15 14.2 °C 14.1 °C 1025.3 hPa ruhig     99% 0.0 mm 0.00 W/m2
00:20 14.1 °C 14.0 °C 1025.3 hPa ruhig     99% 0.0 mm 0.00 W/m2
00:25 13.9 °C 13.8 °C 1025.3 hPa ruhig     99% 0.0 mm 0.00 W/m2
00:30 13.8 °C 13.7 °C 1024.9 hPa ruhig     99% 0.0 mm 0.00 W/m2
00:35 13.7 °C 13.6 °C 1025.3 hPa ruhig     99% 0.0 mm 0.00 W/m2
00:40 13.5 °C 13.4 °C 1024.9 hPa ruhig     99% 0.0 mm 0.00 W/m2
00:45 13.5 °C 13.4 °C 1025.3 hPa ruhig     99% 0.0 mm 0.00 W/m2
00:50 13.4 °C 13.3 °C 1024.9 hPa ruhig     99% 0.0 mm 0.00 W/m2
00:55 13.4 °C 13.3 °C 1025.3 hPa ruhig     99% 0.0 mm 0.00 W/m2
01:00 13.4 °C 13.3 °C 1024.9 hPa ruhig     99% 0.0 mm 0.00 W/m2
01:05 13.3 °C 13.2 °C 1024.9 hPa ruhig     99% 0.0 mm 0.00 W/m2
01:10 13.3 °C 13.2 °C 1024.9 hPa ruhig     99% 0.0 mm 0.00 W/m2
01:15 13.3 °C 13.2 °C 1024.9 hPa ruhig     99% 0.0 mm 0.00 W/m2
01:20 13.2 °C 13.1 °C 1024.9 hPa ruhig     99% 0.0 mm 0.00 W/m2
01:25 13.2 °C 13.1 °C 1024.9 hPa ruhig     99% 0.0 mm 0.00 W/m2
01:30 13.2 °C 13.1 °C 1024.9 hPa ruhig     99% 0.0 mm 0.00 W/m2
01:35 13.1 °C 13.0 °C 1024.9 hPa ruhig     99% 0.0 mm 0.00 W/m2
01:40 13.1 °C 13.0 °C 1024.9 hPa ruhig     99% 0.0 mm 0.00 W/m2
01:45 13.0 °C 12.9 °C 1024.9 hPa ruhig     99% 0.0 mm 0.00 W/m2
01:50 13.0 °C 12.9 °C 1024.6 hPa ruhig     99% 0.0 mm 0.00 W/m2
01:55 13.0 °C 12.9 °C 1024.9 hPa ruhig     99% 0.0 mm 0.00 W/m2
02:00 12.9 °C 12.8 °C 1024.9 hPa ruhig     99% 0.0 mm 0.00 W/m2
02:05 12.9 °C 12.8 °C 1024.9 hPa ruhig     99% 0.0 mm 0.00 W/m2
02:10 12.8 °C 12.7 °C 1024.6 hPa ruhig     99% 0.0 mm 0.00 W/m2
02:15 12.8 °C 12.7 °C 1024.6 hPa ruhig     99% 0.0 mm 0.00 W/m2
02:20 12.8 °C 12.7 °C 1024.6 hPa ruhig     99% 0.0 mm 0.00 W/m2
02:25 12.7 °C 12.6 °C 1024.9 hPa ruhig     99% 0.0 mm 0.00 W/m2
02:30 12.6 °C 12.5 °C 1024.9 hPa ruhig     99% 0.0 mm 0.00 W/m2
02:35 12.6 °C 12.5 °C 1024.6 hPa ruhig     99% 0.0 mm 0.00 W/m2
02:40 12.7 °C 12.6 °C 1024.6 hPa ruhig     99% 0.0 mm 0.00 W/m2
02:45 12.7 °C 12.6 °C 1024.6 hPa ruhig     99% 0.0 mm 0.00 W/m2
02:50 12.6 °C 12.5 °C 1024.6 hPa ruhig     99% 0.0 mm 0.00 W/m2
02:55 12.7 °C 12.6 °C 1024.6 hPa ruhig     99% 0.0 mm 0.00 W/m2
03:00 12.7 °C 12.6 °C 1024.9 hPa ruhig     99% 0.0 mm 0.00 W/m2
03:05 12.6 °C 12.5 °C 1024.3 hPa ruhig     99% 0.0 mm 0.00 W/m2
03:10 12.6 °C 12.5 °C 1024.6 hPa ruhig     99% 0.0 mm 0.00 W/m2
03:15 12.5 °C 12.4 °C 1024.6 hPa ruhig     99% 0.0 mm 0.00 W/m2
03:20 12.4 °C 12.3 °C 1024.6 hPa ruhig     99% 0.0 mm 0.00 W/m2
03:25 12.3 °C 12.2 °C 1024.3 hPa ruhig     99% 0.0 mm 0.00 W/m2
03:30 12.2 °C 12.1 °C 1024.6 hPa ruhig     99% 0.0 mm 0.00 W/m2
03:35 12.2 °C 12.1 °C 1024.3 hPa ruhig     99% 0.0 mm 0.00 W/m2
03:40 12.1 °C 12.0 °C 1024.6 hPa ruhig     99% 0.0 mm 0.00 W/m2
03:45 12.1 °C 12.0 °C 1024.3 hPa ruhig     99% 0.0 mm 0.00 W/m2
03:50 12.1 °C 12.0 °C 1024.3 hPa ruhig     99% 0.0 mm 0.00 W/m2
03:55 12.0 °C 11.9 °C 1024.3 hPa ruhig     99% 0.0 mm 0.00 W/m2
04:00 12.0 °C 11.9 °C 1023.9 hPa ruhig     99% 0.0 mm 0.00 W/m2
04:05 12.0 °C 11.9 °C 1024.3 hPa ruhig     99% 0.0 mm 0.00 W/m2
04:10 11.9 °C 11.8 °C 1024.3 hPa ruhig     99% 0.0 mm 0.00 W/m2
04:15 12.0 °C 11.9 °C 1024.3 hPa ruhig     99% 0.0 mm 0.00 W/m2
04:20 12.0 °C 11.9 °C 1024.3 hPa ruhig     99% 0.0 mm 0.00 W/m2
04:25 12.1 °C 12.0 °C 1024.3 hPa ruhig     99% 0.0 mm 0.00 W/m2
04:30 12.2 °C 12.1 °C 1024.3 hPa ruhig     99% 0.0 mm 0.00 W/m2
04:35 12.3 °C 12.2 °C 1023.9 hPa ruhig     99% 0.0 mm 0.00 W/m2
04:40 12.3 °C 12.2 °C 1023.9 hPa ruhig     99% 0.0 mm 0.00 W/m2
04:45 12.3 °C 12.2 °C 1024.3 hPa ruhig     99% 0.0 mm 0.00 W/m2
04:50 12.3 °C 12.2 °C 1023.9 hPa ruhig     99% 0.0 mm 0.00 W/m2
04:55 12.3 °C 12.2 °C 1024.3 hPa ruhig     99% 0.0 mm 0.00 W/m2
05:00 12.3 °C 12.2 °C 1024.3 hPa ruhig     99% 0.0 mm 0.00 W/m2
05:05 12.4 °C 12.3 °C 1024.3 hPa ruhig     99% 0.0 mm 0.00 W/m2
05:10 12.3 °C 12.2 °C 1024.3 hPa ruhig     99% 0.0 mm 0.00 W/m2
05:15 12.4 °C 12.3 °C 1024.3 hPa ruhig     99% 0.0 mm 0.00 W/m2
05:20 12.4 °C 12.3 °C 1023.9 hPa ruhig     99% 0.0 mm 0.00 W/m2
05:25 12.4 °C 12.3 °C 1023.9 hPa ruhig     99% 0.0 mm 0.00 W/m2
05:30 12.4 °C 12.3 °C 1023.9 hPa ruhig     99% 0.0 mm 0.00 W/m2
05:35 12.4 °C 12.3 °C 1023.9 hPa ruhig     99% 0.0 mm 0.00 W/m2
05:40 12.4 °C 12.3 °C 1023.9 hPa ruhig     99% 0.0 mm 0.00 W/m2
05:45 12.4 °C 12.3 °C 1023.9 hPa ruhig     99% 0.0 mm 0.00 W/m2
05:50 12.5 °C 12.4 °C 1023.9 hPa ruhig     99% 0.0 mm 0.00 W/m2
05:55 12.5 °C 12.4 °C 1023.9 hPa ruhig     99% 0.0 mm 0.00 W/m2
06:00 12.4 °C 12.3 °C 1024.3 hPa ruhig     99% 0.0 mm 0.00 W/m2
06:05 12.5 °C 12.4 °C 1023.9 hPa ruhig     99% 0.0 mm 0.00 W/m2
06:10 12.5 °C 12.4 °C 1023.9 hPa ruhig     99% 0.0 mm 0.00 W/m2
06:15 12.5 °C 12.4 °C 1023.9 hPa ruhig     99% 0.0 mm 0.39 W/m2
06:20 12.5 °C 12.4 °C 1023.9 hPa ruhig     99% 0.0 mm 2.13 W/m2
06:25 12.4 °C 12.3 °C 1024.3 hPa ruhig     99% 0.0 mm 4.52 W/m2
06:30 12.4 °C 12.3 °C 1024.3 hPa ruhig     99% 0.0 mm 6.63 W/m2
06:35 12.4 °C 12.3 °C 1023.9 hPa ruhig     99% 0.0 mm 9.50 W/m2
06:40 12.3 °C 12.2 °C 1023.9 hPa ruhig     99% 0.0 mm 12.62 W/m2
06:45 12.3 °C 12.2 °C 1023.9 hPa ruhig     99% 0.0 mm 14.13 W/m2
06:50 12.4 °C 12.3 °C 1023.9 hPa ruhig     99% 0.0 mm 19.12 W/m2
06:55 12.4 °C 12.3 °C 1023.9 hPa ruhig     99% 0.0 mm 23.24 W/m2
07:00 12.5 °C 12.4 °C 1023.9 hPa ruhig     99% 0.0 mm 26.61 W/m2
07:05 12.5 °C 12.4 °C 1023.9 hPa ruhig     99% 0.0 mm 30.66 W/m2
07:10 12.5 °C 12.4 °C 1023.9 hPa ruhig     99% 0.0 mm 32.76 W/m2
07:15 12.6 °C 12.5 °C 1023.9 hPa ruhig     99% 0.0 mm 36.24 W/m2
07:20 12.6 °C 12.5 °C 1023.9 hPa ruhig     99% 0.0 mm 41.28 W/m2
07:25 12.6 °C 12.5 °C 1023.9 hPa ruhig     99% 0.0 mm 48.46 W/m2
07:30 12.6 °C 12.5 °C 1023.9 hPa ruhig     99% 0.0 mm 53.18 W/m2
07:35 12.6 °C 12.5 °C 1023.9 hPa ruhig     99% 0.0 mm 58.97 W/m2
07:40 12.6 °C 12.5 °C 1023.9 hPa ruhig     99% 0.0 mm 67.39 W/m2
07:45 12.7 °C 12.6 °C 1023.9 hPa ruhig     99% 0.0 mm 80.00 W/m2
07:50 12.7 °C 12.6 °C 1023.6 hPa ruhig     99% 0.0 mm 79.10 W/m2
07:55 12.8 °C 12.7 °C 1023.9 hPa ruhig     99% 0.0 mm 80.85 W/m2
08:00 13.0 °C 12.9 °C 1023.9 hPa ruhig     99% 0.0 mm 87.30 W/m2
08:05 13.2 °C 13.1 °C 1023.9 hPa ruhig     99% 0.0 mm 83.48 W/m2
08:10 13.4 °C 13.3 °C 1023.9 hPa ruhig     99% 0.0 mm 74.53 W/m2
08:15 13.7 °C 13.6 °C 1023.6 hPa ruhig     99% 0.0 mm 81.02 W/m2
08:20 14.0 °C 13.9 °C 1023.9 hPa ruhig     99% 0.0 mm 101.52 W/m2
08:25 14.4 °C 14.3 °C 1023.6 hPa ruhig     99% 0.0 mm 105.91 W/m2
08:30 14.8 °C 14.7 °C 1023.6 hPa ruhig     99% 0.0 mm 105.85 W/m2
08:35 15.2 °C 15.1 °C 1023.9 hPa ruhig     99% 0.0 mm 116.01 W/m2
08:40 15.6 °C 15.3 °C 1023.6 hPa ruhig     98% 0.0 mm 113.35 W/m2
08:45 16.0 °C 15.7 °C 1023.6 hPa ruhig     98% 0.0 mm 107.51 W/m2
08:50 16.4 °C 15.9 °C 1023.6 hPa ruhig     97% 0.0 mm 99.66 W/m2
08:55 16.8 °C 16.3 °C 1023.6 hPa ruhig     97% 0.0 mm 104.33 W/m2
09:00 17.0 °C 16.5 °C 1023.6 hPa ruhig     97% 0.0 mm 110.52 W/m2
09:05 17.3 °C 16.7 °C 1023.6 hPa ruhig     96% 0.0 mm 115.60 W/m2
09:10 17.6 °C 16.8 °C 1023.6 hPa ruhig     95% 0.0 mm 119.81 W/m2
09:15 17.8 °C 17.0 °C 1023.6 hPa ruhig     95% 0.0 mm 121.67 W/m2
09:20 18.1 °C 17.1 °C 1023.6 hPa ruhig     94% 0.0 mm 117.06 W/m2
09:25 18.4 °C 17.4 °C 1023.6 hPa ENE 0.3 km/h 4.0 km/h 94% 0.0 mm 111.63 W/m2
09:30 18.7 °C 17.6 °C 1023.6 hPa ruhig     93% 0.0 mm 110.40 W/m2
09:35 18.9 °C 17.9 °C 1023.6 hPa ruhig     94% 0.0 mm 112.39 W/m2
09:40 19.1 °C 18.0 °C 1023.6 hPa ESE 0.3 km/h 4.0 km/h 93% 0.0 mm 113.29 W/m2
09:45 19.3 °C 18.0 °C 1023.6 hPa ruhig     92% 0.0 mm 115.16 W/m2
09:50 19.5 °C 18.2 °C 1023.6 hPa ruhig     92% 0.0 mm 117.32 W/m2
09:55 19.6 °C 18.3 °C 1023.6 hPa ruhig     92% 0.0 mm 122.14 W/m2
10:00 19.8 °C 18.3 °C 1023.6 hPa ruhig     91% 0.0 mm 129.03 W/m2
10:05 19.9 °C 18.4 °C 1023.6 hPa ruhig     91% 0.0 mm 135.08 W/m2
10:10 20.2 °C 18.5 °C 1023.6 hPa ruhig     90% 0.0 mm 140.31 W/m2
10:15 20.4 °C 18.5 °C 1023.6 hPa ruhig     89% 0.0 mm 143.26 W/m2
10:20 20.7 °C 18.7 °C 1023.6 hPa ruhig     88% 0.0 mm 144.31 W/m2
10:25 21.1 °C 18.9 °C 1023.2 hPa ruhig     87% 0.0 mm 143.69 W/m2
10:30 21.6 °C 19.2 °C 1023.6 hPa ruhig     86% 0.0 mm 143.52 W/m2
10:35 21.9 °C 19.5 °C 1023.6 hPa ruhig     86% 0.0 mm 142.00 W/m2
10:40 22.3 °C 19.7 °C 1023.6 hPa ruhig     85% 0.0 mm 137.27 W/m2
10:45 22.6 °C 20.2 °C 1023.2 hPa ruhig     86% 0.0 mm 135.25 W/m2
10:50 22.7 °C 20.1 °C 1023.6 hPa ruhig     85% 0.0 mm 133.74 W/m2
10:55 22.8 °C 20.2 °C 1023.2 hPa East 2.9 km/h 4.0 km/h 85% 0.0 mm 134.11 W/m2
11:00 22.8 °C 20.0 °C 1023.2 hPa ruhig     84% 0.0 mm 135.63 W/m2
11:05 22.9 °C 20.1 °C 1023.2 hPa ruhig     84% 0.0 mm 138.44 W/m2
11:10 23.0 °C 20.2 °C 1023.2 hPa SSE 3.2 km/h 7.9 km/h 84% 0.0 mm 140.13 W/m2
11:15 23.1 °C 20.1 °C 1023.2 hPa ruhig     83% 0.0 mm 140.22 W/m2
11:20 23.2 °C 20.2 °C 1023.2 hPa NE 0.3 km/h 4.0 km/h 83% 0.0 mm 144.95 W/m2
11:25 23.4 °C 20.4 °C 1023.2 hPa ruhig     83% 0.0 mm 142.06 W/m2
11:30 23.4 °C 20.2 °C 1023.2 hPa East 0.3 km/h 4.0 km/h 82% 0.0 mm 137.33 W/m2
11:35 23.5 °C 20.5 °C 1023.2 hPa ruhig     83% 0.0 mm 144.39 W/m2
11:40 23.5 °C 20.7 °C 1023.2 hPa ruhig     84% 0.0 mm 152.05 W/m2
11:45 23.6 °C 20.8 °C 1023.2 hPa ruhig     84% 0.0 mm 156.54 W/m2
11:50 23.6 °C 20.4 °C 1023.2 hPa ESE 0.3 km/h 4.0 km/h 82% 0.0 mm 152.10 W/m2
11:55 23.7 °C 20.5 °C 1023.2 hPa ruhig     82% 0.0 mm 147.08 W/m2
12:00 23.9 °C 20.5 °C 1022.9 hPa ruhig     81% 0.0 mm 156.51 W/m2
12:05 24.0 °C 20.6 °C 1023.2 hPa ruhig     81% 0.0 mm 155.96 W/m2
12:10 24.1 °C 20.9 °C 1022.9 hPa ruhig     82% 0.0 mm 172.81 W/m2
12:15 24.3 °C 21.1 °C 1023.2 hPa ruhig     82% 0.0 mm 197.08 W/m2
12:20 24.4 °C 21.2 °C 1023.2 hPa ruhig     82% 0.0 mm 207.36 W/m2
12:25 24.6 °C 20.7 °C 1022.9 hPa ruhig     79% 0.0 mm 192.52 W/m2
12:30 24.7 °C 21.0 °C 1022.9 hPa ruhig     80% 0.0 mm 187.35 W/m2
12:35 24.8 °C 21.1 °C 1022.9 hPa ruhig     80% 0.0 mm 170.24 W/m2
12:40 24.9 °C 21.2 °C 1022.6 hPa ruhig     80% 0.0 mm 170.24 W/m2
12:45 25.0 °C 21.3 °C 1022.9 hPa ruhig     80% 0.0 mm 153.97 W/m2
12:50 25.0 °C 21.5 °C 1022.9 hPa NE 0.6 km/h 4.0 km/h 81% 0.0 mm 151.61 W/m2
12:55 25.1 °C 21.6 °C 1022.9 hPa ruhig     81% 0.0 mm 151.37 W/m2
13:00 25.1 °C 21.0 °C 1022.9 hPa NNE 5.8 km/h 7.9 km/h 78% 0.0 mm 149.30 W/m2
13:05 25.1 °C 21.0 °C 1022.9 hPa NNE 0.3 km/h 4.0 km/h 78% 0.0 mm 147.75 W/m2
13:10 25.1 °C 21.2 °C 1022.6 hPa ruhig     79% 0.0 mm 145.01 W/m2
13:15 25.2 °C 21.1 °C 1022.6 hPa ruhig     78% 0.0 mm 151.78 W/m2
13:20 25.2 °C 21.1 °C 1022.6 hPa ruhig     78% 0.0 mm 151.23 W/m2
13:25 25.3 °C 21.2 °C 1022.6 hPa ENE 15.4 km/h 19.8 km/h 78% 0.0 mm 151.70 W/m2
13:30 25.4 °C 21.3 °C 1022.6 hPa ruhig     78% 0.0 mm 154.94 W/m2
13:35 25.5 °C 21.4 °C 1022.6 hPa ruhig     78% 0.0 mm 164.08 W/m2
13:40 25.6 °C 21.3 °C 1022.2 hPa NE 6.4 km/h 11.9 km/h 77% 0.0 mm 156.54 W/m2
13:45 25.7 °C 21.6 °C 1022.6 hPa SW 0.3 km/h 4.0 km/h 78% 0.0 mm 156.22 W/m2
13:50 25.8 °C 21.3 °C 1022.6 hPa ESE 0.3 km/h 4.0 km/h 76% 0.0 mm 156.57 W/m2
13:55 25.8 °C 21.5 °C 1022.6 hPa ruhig     77% 0.0 mm 297.27 W/m2
14:00 25.9 °C 21.2 °C 1022.2 hPa ENE 3.2 km/h 4.0 km/h 75% 0.0 mm 448.34 W/m2
14:05 26.0 °C 21.9 °C 1022.6 hPa ruhig     78% 0.0 mm 470.50 W/m2
14:10 26.1 °C 21.4 °C 1022.6 hPa ruhig     75% 0.0 mm 453.80 W/m2
14:15 26.2 °C 21.2 °C 1022.2 hPa ruhig     74% 0.0 mm 468.90 W/m2
14:20 26.4 °C 21.0 °C 1022.6 hPa ESE 0.3 km/h 4.0 km/h 72% 0.0 mm 488.64 W/m2
14:25 26.6 °C 21.6 °C 1022.6 hPa ruhig     74% 0.0 mm 403.95 W/m2
14:30 26.7 °C 21.5 °C 1022.2 hPa ruhig     73% 0.0 mm 492.43 W/m2
14:35 26.8 °C 21.6 °C 1022.6 hPa ruhig     73% 0.0 mm 206.36 W/m2
14:40 26.8 °C 21.6 °C 1022.2 hPa NE 0.6 km/h 4.0 km/h 73% 0.0 mm 260.83 W/m2
14:45 26.8 °C 21.8 °C 1022.2 hPa ruhig     74% 0.0 mm 498.95 W/m2
14:50 26.8 °C 21.6 °C 1022.2 hPa ruhig     73% 0.0 mm 503.18 W/m2
14:55 26.9 °C 21.5 °C 1022.2 hPa ruhig     72% 0.0 mm 293.97 W/m2
15:00 27.0 °C 21.8 °C 1022.2 hPa ruhig     73% 0.0 mm 520.85 W/m2
15:05 27.1 °C 21.6 °C 1022.2 hPa ruhig     72% 0.0 mm 233.93 W/m2
15:10 27.2 °C 22.0 °C 1022.2 hPa ruhig     73% 0.0 mm 509.20 W/m2
15:15 27.3 °C 21.8 °C 1022.6 hPa ruhig     72% 0.0 mm 526.02 W/m2
15:20 27.4 °C 21.9 °C 1022.6 hPa ruhig     72% 0.0 mm 527.51 W/m2
15:25 27.5 °C 22.0 °C 1022.2 hPa ruhig     72% 0.0 mm 521.75 W/m2
15:30 27.5 °C 21.6 °C 1022.2 hPa ruhig     70% 0.0 mm 520.50 W/m2
15:35 27.5 °C 22.0 °C 1022.2 hPa ENE 2.1 km/h 4.0 km/h 72% 0.0 mm 492.52 W/m2
15:40 27.6 °C 21.9 °C 1022.2 hPa East 0.3 km/h 4.0 km/h 71% 0.0 mm 492.99 W/m2
15:45 27.7 °C 22.0 °C 1022.2 hPa ruhig     71% 0.0 mm 491.18 W/m2
15:50 27.6 °C 22.1 °C 1022.2 hPa ENE 4.0 km/h 7.9 km/h 72% 0.0 mm 477.98 W/m2
15:55 27.6 °C 21.9 °C 1022.2 hPa ruhig     71% 0.0 mm 499.35 W/m2
16:00 27.6 °C 21.9 °C 1021.9 hPa ruhig     71% 0.0 mm 423.63 W/m2
16:05 27.6 °C 21.7 °C 1022.2 hPa ruhig     70% 0.0 mm 488.37 W/m2
16:10 27.6 °C 21.9 °C 1021.9 hPa ruhig     71% 0.0 mm 437.59 W/m2
16:15 27.7 °C 21.3 °C 1022.2 hPa ruhig     68% 0.0 mm 484.40 W/m2
16:20 27.9 °C 22.4 °C 1021.9 hPa ruhig     72% 0.0 mm 444.31 W/m2
16:25 27.8 °C 22.5 °C 1021.9 hPa ruhig     73% 0.0 mm 349.14 W/m2
16:30 27.8 °C 22.5 °C 1021.9 hPa ruhig     73% 0.0 mm 451.52 W/m2
16:35 27.8 °C 22.3 °C 1022.2 hPa ruhig     72% 0.0 mm 372.64 W/m2
16:40 27.9 °C 22.6 °C 1021.9 hPa ruhig     73% 0.0 mm 183.67 W/m2
16:45 27.7 °C 22.2 °C 1021.9 hPa ruhig     72% 0.0 mm 429.06 W/m2
16:50 27.6 °C 21.9 °C 1022.2 hPa ruhig     71% 0.0 mm 437.24 W/m2
16:55 27.7 °C 21.5 °C 1021.6 hPa ruhig     69% 0.0 mm 448.40 W/m2
17:00 27.8 °C 21.9 °C 1021.9 hPa ruhig     70% 0.0 mm 286.88 W/m2
17:05 27.8 °C 22.5 °C 1021.9 hPa ruhig     73% 0.0 mm 356.17 W/m2
17:10 27.7 °C 22.0 °C 1021.9 hPa ruhig     71% 0.0 mm 390.08 W/m2
17:15 27.9 °C 22.0 °C 1021.9 hPa ruhig     70% 0.0 mm 397.03 W/m2
17:20 27.9 °C 22.2 °C 1022.2 hPa NE 2.9 km/h 7.9 km/h 71% 0.0 mm 398.49 W/m2
17:25 27.8 °C 22.5 °C 1021.9 hPa ruhig     73% 0.0 mm 366.31 W/m2
17:30 27.7 °C 22.2 °C 1021.9 hPa NE 1.4 km/h 4.0 km/h 72% 0.0 mm 276.54 W/m2
17:35 27.6 °C 22.1 °C 1021.9 hPa ruhig     72% 0.0 mm 321.74 W/m2
17:40 27.6 °C 22.4 °C 1021.9 hPa ruhig     73% 0.0 mm 336.08 W/m2
17:45 27.4 °C 22.2 °C 1021.9 hPa North 0.6 km/h 4.0 km/h 73% 0.0 mm 328.11 W/m2
17:50 27.3 °C 22.1 °C 1021.9 hPa ruhig     73% 0.0 mm 211.06 W/m2
17:55 27.2 °C 22.0 °C 1021.9 hPa ENE 2.1 km/h 4.0 km/h 73% 0.0 mm 298.97 W/m2
18:00 27.1 °C 21.9 °C 1022.2 hPa NNE 0.6 km/h 4.0 km/h 73% 0.0 mm 308.51 W/m2
18:05 27.0 °C 22.0 °C 1021.9 hPa ruhig     74% 0.0 mm 264.89 W/m2
18:10 26.9 °C 22.1 °C 1021.9 hPa ruhig     75% 0.0 mm 127.14 W/m2
18:15 26.8 °C 22.2 °C 1021.9 hPa NE 0.6 km/h 4.0 km/h 76% 0.0 mm 122.61 W/m2
18:20 26.6 °C 22.1 °C 1021.9 hPa ruhig     76% 0.0 mm 222.80 W/m2
18:25 26.5 °C 22.0 °C 1021.9 hPa ruhig     76% 0.0 mm 167.41 W/m2
18:30 26.4 °C 21.9 °C 1021.9 hPa ruhig     76% 0.0 mm 194.21 W/m2
18:35 26.2 °C 21.7 °C 1021.9 hPa ruhig     76% 0.0 mm 137.47 W/m2
18:40 26.1 °C 21.6 °C 1021.6 hPa ruhig     76% 0.0 mm 190.56 W/m2
18:45 26.2 °C 21.7 °C 1021.9 hPa ruhig     76% 0.0 mm 186.21 W/m2
18:50 26.2 °C 21.4 °C 1021.9 hPa ruhig     75% 0.0 mm 167.38 W/m2
18:55 26.1 °C 21.8 °C 1021.9 hPa ruhig     77% 0.0 mm 152.31 W/m2
19:00 26.1 °C 22.0 °C 1021.9 hPa ruhig     78% 0.0 mm 116.48 W/m2
19:05 25.9 °C 21.8 °C 1021.9 hPa ruhig     78% 0.0 mm 89.84 W/m2
19:10 25.8 °C 21.9 °C 1021.9 hPa ruhig     79% 0.0 mm 79.27 W/m2
19:15 25.7 °C 22.0 °C 1021.9 hPa ruhig     80% 0.0 mm 73.60 W/m2
19:20 25.5 °C 21.8 °C 1021.9 hPa ruhig     80% 0.0 mm 85.84 W/m2
19:25 25.4 °C 21.7 °C 1021.9 hPa ruhig     80% 0.0 mm 73.46 W/m2
19:30 25.2 °C 21.7 °C 1021.6 hPa ruhig     81% 0.0 mm 61.60 W/m2
19:35 25.1 °C 21.6 °C 1021.9 hPa ruhig     81% 0.0 mm 50.41 W/m2
19:40 25.1 °C 21.6 °C 1021.9 hPa ruhig     81% 0.0 mm 39.51 W/m2
19:45 25.0 °C 21.7 °C 1021.9 hPa ruhig     82% 0.0 mm 27.68 W/m2
19:50 24.9 °C 21.6 °C 1021.9 hPa ruhig     82% 0.0 mm 17.09 W/m2
Neuhaus/WN - Oberpfalz